sensor_id;sensor_type;location;lat;lon;timestamp;P1;durP1;ratioP1;P2;durP2;ratioP2
71166;SDS011;58864;45.928;20.078;2023-12-20T00:01:45;60.60;;;28.40;;
71166;SDS011;58864;45.928;20.078;2023-12-20T00:04:09;57.57;;;27.57;;
71166;SDS011;58864;45.928;20.078;2023-12-20T00:06:34;60.33;;;28.27;;
71166;SDS011;58864;45.928;20.078;2023-12-20T00:08:58;59.10;;;29.00;;
71166;SDS011;58864;45.928;20.078;2023-12-20T00:11:23;56.50;;;28.80;;
71166;SDS011;58864;45.928;20.078;2023-12-20T00:13:48;54.25;;;26.25;;
71166;SDS011;58864;45.928;20.078;2023-12-20T00:16:12;56.93;;;27.23;;
71166;SDS011;58864;45.928;20.078;2023-12-20T00:18:36;50.17;;;23.93;;
71166;SDS011;58864;45.928;20.078;2023-12-20T00:21:01;48.90;;;24.63;;
71166;SDS011;58864;45.928;20.078;2023-12-20T00:23:25;48.40;;;22.88;;
71166;SDS011;58864;45.928;20.078;2023-12-20T00:25:50;50.33;;;25.03;;
71166;SDS011;58864;45.928;20.078;2023-12-20T00:28:14;42.43;;;21.83;;
71166;SDS011;58864;45.928;20.078;2023-12-20T00:30:39;44.83;;;21.83;;
71166;SDS011;58864;45.928;20.078;2023-12-20T00:33:03;45.55;;;22.77;;
71166;SDS011;58864;45.928;20.078;2023-12-20T00:35:28;44.47;;;21.33;;
71166;SDS011;58864;45.928;20.078;2023-12-20T00:37:52;50.30;;;25.13;;
71166;SDS011;58864;45.928;20.078;2023-12-20T00:40:16;51.17;;;26.00;;
71166;SDS011;58864;45.928;20.078;2023-12-20T00:42:41;54.93;;;26.03;;
71166;SDS011;58864;45.928;20.078;2023-12-20T00:45:05;58.00;;;27.47;;
71166;SDS011;58864;45.928;20.078;2023-12-20T00:47:30;61.08;;;27.08;;
71166;SDS011;58864;45.928;20.078;2023-12-20T00:49:55;53.03;;;26.80;;
71166;SDS011;58864;45.928;20.078;2023-12-20T00:52:19;49.33;;;25.63;;
71166;SDS011;58864;45.928;20.078;2023-12-20T00:54:46;54.43;;;26.10;;
71166;SDS011;58864;45.928;20.078;2023-12-20T00:57:10;52.42;;;26.00;;
71166;SDS011;58864;45.928;20.078;2023-12-20T00:59:35;50.57;;;24.10;;
71166;SDS011;58864;45.928;20.078;2023-12-20T01:01:59;51.63;;;24.77;;
71166;SDS011;58864;45.928;20.078;2023-12-20T01:04:23;51.23;;;24.40;;
71166;SDS011;58864;45.928;20.078;2023-12-20T01:06:48;46.92;;;23.70;;
71166;SDS011;58864;45.928;20.078;2023-12-20T01:09:12;48.93;;;23.53;;
71166;SDS011;58864;45.928;20.078;2023-12-20T01:11:37;44.13;;;20.97;;
71166;SDS011;58864;45.928;20.078;2023-12-20T01:14:01;43.73;;;21.53;;
71166;SDS011;58864;45.928;20.078;2023-12-20T01:16:25;44.97;;;22.40;;
71166;SDS011;58864;45.928;20.078;2023-12-20T01:18:50;50.40;;;24.40;;
71166;SDS011;58864;45.928;20.078;2023-12-20T01:21:14;46.07;;;23.37;;
71166;SDS011;58864;45.928;20.078;2023-12-20T01:23:38;45.00;;;23.33;;
71166;SDS011;58864;45.928;20.078;2023-12-20T01:26:03;51.10;;;23.93;;
71166;SDS011;58864;45.928;20.078;2023-12-20T01:28:29;49.75;;;22.98;;
71166;SDS011;58864;45.928;20.078;2023-12-20T01:30:53;45.50;;;22.23;;
71166;SDS011;58864;45.928;20.078;2023-12-20T01:33:18;45.87;;;22.20;;
71166;SDS011;58864;45.928;20.078;2023-12-20T01:35:42;56.90;;;26.38;;
71166;SDS011;58864;45.928;20.078;2023-12-20T01:38:07;50.50;;;24.40;;
71166;SDS011;58864;45.928;20.078;2023-12-20T01:40:31;48.60;;;23.23;;
71166;SDS011;58864;45.928;20.078;2023-12-20T01:43:03;49.17;;;22.73;;
71166;SDS011;58864;45.928;20.078;2023-12-20T01:45:31;42.80;;;21.17;;
71166;SDS011;58864;45.928;20.078;2023-12-20T01:47:55;42.30;;;21.43;;
71166;SDS011;58864;45.928;20.078;2023-12-20T01:50:21;42.88;;;20.55;;
71166;SDS011;58864;45.928;20.078;2023-12-20T01:52:46;44.92;;;20.48;;
71166;SDS011;58864;45.928;20.078;2023-12-20T01:55:10;44.27;;;21.60;;
71166;SDS011;58864;45.928;20.078;2023-12-20T01:57:39;46.40;;;20.90;;
71166;SDS011;58864;45.928;20.078;2023-12-20T02:00:05;43.78;;;21.52;;
71166;SDS011;58864;45.928;20.078;2023-12-20T02:02:30;47.03;;;21.70;;
71166;SDS011;58864;45.928;20.078;2023-12-20T02:04:55;45.38;;;21.20;;
71166;SDS011;58864;45.928;20.078;2023-12-20T02:07:19;47.97;;;23.20;;
71166;SDS011;58864;45.928;20.078;2023-12-20T02:09:44;47.55;;;21.98;;
71166;SDS011;58864;45.928;20.078;2023-12-20T02:12:08;44.77;;;20.20;;
71166;SDS011;58864;45.928;20.078;2023-12-20T02:14:33;39.93;;;19.97;;
71166;SDS011;58864;45.928;20.078;2023-12-20T02:16:57;41.47;;;20.38;;
71166;SDS011;58864;45.928;20.078;2023-12-20T02:19:22;38.93;;;18.93;;
71166;SDS011;58864;45.928;20.078;2023-12-20T02:21:46;39.33;;;19.23;;
71166;SDS011;58864;45.928;20.078;2023-12-20T02:24:11;42.13;;;20.70;;
71166;SDS011;58864;45.928;20.078;2023-12-20T02:26:35;45.35;;;22.27;;
71166;SDS011;58864;45.928;20.078;2023-12-20T02:29:00;44.83;;;22.27;;
71166;SDS011;58864;45.928;20.078;2023-12-20T02:31:24;44.07;;;21.30;;
71166;SDS011;58864;45.928;20.078;2023-12-20T02:33:49;43.03;;;20.08;;
71166;SDS011;58864;45.928;20.078;2023-12-20T02:36:13;42.37;;;20.40;;
71166;SDS011;58864;45.928;20.078;2023-12-20T02:38:37;45.03;;;21.07;;
71166;SDS011;58864;45.928;20.078;2023-12-20T02:41:02;41.97;;;20.13;;
71166;SDS011;58864;45.928;20.078;2023-12-20T02:43:27;41.47;;;19.95;;
71166;SDS011;58864;45.928;20.078;2023-12-20T02:45:51;39.27;;;19.50;;
71166;SDS011;58864;45.928;20.078;2023-12-20T02:48:16;37.83;;;19.07;;
71166;SDS011;58864;45.928;20.078;2023-12-20T02:50:41;39.35;;;19.42;;
71166;SDS011;58864;45.928;20.078;2023-12-20T02:53:06;40.83;;;19.80;;
71166;SDS011;58864;45.928;20.078;2023-12-20T02:55:30;35.28;;;17.25;;
71166;SDS011;58864;45.928;20.078;2023-12-20T02:57:54;37.53;;;18.87;;
71166;SDS011;58864;45.928;20.078;2023-12-20T03:00:19;37.03;;;18.80;;
71166;SDS011;58864;45.928;20.078;2023-12-20T03:02:43;37.53;;;18.83;;
71166;SDS011;58864;45.928;20.078;2023-12-20T03:05:08;34.65;;;17.30;;
71166;SDS011;58864;45.928;20.078;2023-12-20T03:07:32;37.13;;;17.57;;
71166;SDS011;58864;45.928;20.078;2023-12-20T03:09:57;38.83;;;16.90;;
71166;SDS011;58864;45.928;20.078;2023-12-20T03:12:21;39.10;;;18.53;;
71166;SDS011;58864;45.928;20.078;2023-12-20T03:14:45;41.65;;;19.73;;
71166;SDS011;58864;45.928;20.078;2023-12-20T03:17:10;48.97;;;21.83;;
71166;SDS011;58864;45.928;20.078;2023-12-20T03:19:34;43.60;;;20.63;;
71166;SDS011;58864;45.928;20.078;2023-12-20T03:21:59;47.27;;;22.70;;
71166;SDS011;58864;45.928;20.078;2023-12-20T03:24:25;44.63;;;19.92;;
71166;SDS011;58864;45.928;20.078;2023-12-20T03:26:49;44.97;;;21.57;;
71166;SDS011;58864;45.928;20.078;2023-12-20T03:29:13;43.30;;;19.20;;
71166;SDS011;58864;45.928;20.078;2023-12-20T03:31:38;37.90;;;17.70;;
71166;SDS011;58864;45.928;20.078;2023-12-20T03:34:02;44.60;;;20.77;;
71166;SDS011;58864;45.928;20.078;2023-12-20T03:36:26;39.67;;;18.40;;
71166;SDS011;58864;45.928;20.078;2023-12-20T03:38:51;40.03;;;19.17;;
71166;SDS011;58864;45.928;20.078;2023-12-20T03:41:15;42.50;;;18.38;;
71166;SDS011;58864;45.928;20.078;2023-12-20T03:43:39;37.67;;;17.20;;
71166;SDS011;58864;45.928;20.078;2023-12-20T03:46:04;34.87;;;17.03;;
71166;SDS011;58864;45.928;20.078;2023-12-20T03:48:28;34.30;;;17.40;;
71166;SDS011;58864;45.928;20.078;2023-12-20T03:50:53;29.65;;;15.80;;
71166;SDS011;58864;45.928;20.078;2023-12-20T03:53:18;32.27;;;15.17;;
71166;SDS011;58864;45.928;20.078;2023-12-20T03:55:42;35.07;;;16.63;;
71166;SDS011;58864;45.928;20.078;2023-12-20T03:58:06;37.35;;;16.95;;
71166;SDS011;58864;45.928;20.078;2023-12-20T04:00:31;34.07;;;16.87;;
71166;SDS011;58864;45.928;20.078;2023-12-20T04:02:55;37.10;;;17.50;;
71166;SDS011;58864;45.928;20.078;2023-12-20T04:05:19;37.70;;;17.07;;
71166;SDS011;58864;45.928;20.078;2023-12-20T04:07:44;39.57;;;17.60;;
71166;SDS011;58864;45.928;20.078;2023-12-20T04:10:08;35.13;;;15.55;;
71166;SDS011;58864;45.928;20.078;2023-12-20T04:12:33;34.53;;;16.43;;
71166;SDS011;58864;45.928;20.078;2023-12-20T04:14:57;38.83;;;17.60;;
71166;SDS011;58864;45.928;20.078;2023-12-20T04:17:22;38.92;;;18.60;;
71166;SDS011;58864;45.928;20.078;2023-12-20T04:19:49;38.57;;;16.70;;
71166;SDS011;58864;45.928;20.078;2023-12-20T04:22:14;37.45;;;18.08;;
71166;SDS011;58864;45.928;20.078;2023-12-20T04:24:39;36.55;;;16.92;;
71166;SDS011;58864;45.928;20.078;2023-12-20T04:27:03;37.97;;;16.80;;
71166;SDS011;58864;45.928;20.078;2023-12-20T04:29:28;35.33;;;16.40;;
71166;SDS011;58864;45.928;20.078;2023-12-20T04:31:52;38.33;;;17.67;;
71166;SDS011;58864;45.928;20.078;2023-12-20T04:34:17;32.70;;;15.50;;
71166;SDS011;58864;45.928;20.078;2023-12-20T04:36:41;36.92;;;16.63;;
71166;SDS011;58864;45.928;20.078;2023-12-20T04:39:06;33.90;;;15.33;;
71166;SDS011;58864;45.928;20.078;2023-12-20T04:41:30;37.63;;;16.73;;
71166;SDS011;58864;45.928;20.078;2023-12-20T04:43:55;37.10;;;17.67;;
71166;SDS011;58864;45.928;20.078;2023-12-20T04:46:19;41.03;;;17.90;;
71166;SDS011;58864;45.928;20.078;2023-12-20T04:48:43;33.70;;;16.97;;
71166;SDS011;58864;45.928;20.078;2023-12-20T04:51:08;34.80;;;17.03;;
71166;SDS011;58864;45.928;20.078;2023-12-20T04:53:32;36.50;;;15.60;;
71166;SDS011;58864;45.928;20.078;2023-12-20T04:55:57;33.50;;;15.60;;
71166;SDS011;58864;45.928;20.078;2023-12-20T04:58:21;36.08;;;16.77;;
71166;SDS011;58864;45.928;20.078;2023-12-20T05:00:45;34.70;;;16.33;;
71166;SDS011;58864;45.928;20.078;2023-12-20T05:03:10;37.33;;;17.97;;
71166;SDS011;58864;45.928;20.078;2023-12-20T05:05:34;42.80;;;19.13;;
71166;SDS011;58864;45.928;20.078;2023-12-20T05:07:59;42.42;;;19.42;;
71166;SDS011;58864;45.928;20.078;2023-12-20T05:10:23;39.37;;;17.97;;
71166;SDS011;58864;45.928;20.078;2023-12-20T05:12:47;39.57;;;18.67;;
71166;SDS011;58864;45.928;20.078;2023-12-20T05:15:12;38.67;;;16.93;;
71166;SDS011;58864;45.928;20.078;2023-12-20T05:17:36;35.80;;;17.53;;
71166;SDS011;58864;45.928;20.078;2023-12-20T05:20:01;39.25;;;18.30;;
71166;SDS011;58864;45.928;20.078;2023-12-20T05:22:25;42.03;;;18.53;;
71166;SDS011;58864;45.928;20.078;2023-12-20T05:24:50;39.55;;;17.25;;
71166;SDS011;58864;45.928;20.078;2023-12-20T05:27:15;37.53;;;16.30;;
71166;SDS011;58864;45.928;20.078;2023-12-20T05:29:39;38.67;;;16.93;;
71166;SDS011;58864;45.928;20.078;2023-12-20T05:32:04;39.03;;;17.00;;
71166;SDS011;58864;45.928;20.078;2023-12-20T05:34:28;36.55;;;15.10;;
71166;SDS011;58864;45.928;20.078;2023-12-20T05:36:53;50.00;;;19.35;;
71166;SDS011;58864;45.928;20.078;2023-12-20T05:39:17;46.30;;;16.80;;
71166;SDS011;58864;45.928;20.078;2023-12-20T05:41:42;35.03;;;15.63;;
71166;SDS011;58864;45.928;20.078;2023-12-20T05:44:06;46.17;;;18.37;;
71166;SDS011;58864;45.928;20.078;2023-12-20T05:46:30;39.22;;;17.35;;
71166;SDS011;58864;45.928;20.078;2023-12-20T05:48:55;38.10;;;16.93;;
71166;SDS011;58864;45.928;20.078;2023-12-20T05:51:19;35.20;;;17.30;;
71166;SDS011;58864;45.928;20.078;2023-12-20T05:53:44;35.10;;;16.17;;
71166;SDS011;58864;45.928;20.078;2023-12-20T05:56:08;29.38;;;14.60;;
71166;SDS011;58864;45.928;20.078;2023-12-20T05:58:33;29.80;;;13.47;;
71166;SDS011;58864;45.928;20.078;2023-12-20T06:00:57;33.13;;;14.97;;
71166;SDS011;58864;45.928;20.078;2023-12-20T06:03:22;32.13;;;13.93;;
71166;SDS011;58864;45.928;20.078;2023-12-20T06:05:46;34.23;;;15.60;;
71166;SDS011;58864;45.928;20.078;2023-12-20T06:08:10;40.10;;;16.27;;
71166;SDS011;58864;45.928;20.078;2023-12-20T06:10:35;51.03;;;20.57;;
71166;SDS011;58864;45.928;20.078;2023-12-20T06:12:59;50.30;;;21.17;;
71166;SDS011;58864;45.928;20.078;2023-12-20T06:15:24;45.33;;;19.60;;
71166;SDS011;58864;45.928;20.078;2023-12-20T06:17:49;45.63;;;20.00;;
71166;SDS011;58864;45.928;20.078;2023-12-20T06:20:13;49.07;;;20.07;;
71166;SDS011;58864;45.928;20.078;2023-12-20T06:22:38;53.80;;;21.97;;
71166;SDS011;58864;45.928;20.078;2023-12-20T06:25:02;57.50;;;22.93;;
71166;SDS011;58864;45.928;20.078;2023-12-20T06:27:27;72.72;;;26.45;;
71166;SDS011;58864;45.928;20.078;2023-12-20T06:29:51;60.70;;;24.10;;
71166;SDS011;58864;45.928;20.078;2023-12-20T06:32:15;56.83;;;21.13;;
71166;SDS011;58864;45.928;20.078;2023-12-20T06:34:40;52.53;;;20.77;;
71166;SDS011;58864;45.928;20.078;2023-12-20T06:37:04;47.07;;;20.27;;
71166;SDS011;58864;45.928;20.078;2023-12-20T06:39:29;95.22;;;34.17;;
71166;SDS011;58864;45.928;20.078;2023-12-20T06:41:54;84.05;;;31.00;;
71166;SDS011;58864;45.928;20.078;2023-12-20T06:44:19;78.40;;;28.93;;
71166;SDS011;58864;45.928;20.078;2023-12-20T06:46:43;70.20;;;27.53;;
71166;SDS011;58864;45.928;20.078;2023-12-20T06:49:08;75.90;;;29.77;;
71166;SDS011;58864;45.928;20.078;2023-12-20T06:51:32;66.17;;;25.90;;
71166;SDS011;58864;45.928;20.078;2023-12-20T06:53:57;73.47;;;28.27;;
71166;SDS011;58864;45.928;20.078;2023-12-20T06:56:21;79.28;;;30.85;;
71166;SDS011;58864;45.928;20.078;2023-12-20T06:58:46;94.63;;;37.27;;
71166;SDS011;58864;45.928;20.078;2023-12-20T07:01:14;109.20;;;40.83;;
71166;SDS011;58864;45.928;20.078;2023-12-20T07:03:39;125.22;;;44.97;;
71166;SDS011;58864;45.928;20.078;2023-12-20T07:06:04;108.85;;;39.50;;
71166;SDS011;58864;45.928;20.078;2023-12-20T07:08:28;88.10;;;34.10;;
71166;SDS011;58864;45.928;20.078;2023-12-20T07:10:53;66.63;;;26.53;;
71166;SDS011;58864;45.928;20.078;2023-12-20T07:13:17;56.30;;;25.23;;
71166;SDS011;58864;45.928;20.078;2023-12-20T07:15:41;54.60;;;23.70;;
71166;SDS011;58864;45.928;20.078;2023-12-20T07:18:06;64.70;;;26.50;;
71166;SDS011;58864;45.928;20.078;2023-12-20T07:20:31;62.60;;;24.07;;
71166;SDS011;58864;45.928;20.078;2023-12-20T07:22:55;56.55;;;24.38;;
71166;SDS011;58864;45.928;20.078;2023-12-20T07:25:20;80.47;;;31.30;;
71166;SDS011;58864;45.928;20.078;2023-12-20T07:27:44;76.33;;;28.30;;
71166;SDS011;58864;45.928;20.078;2023-12-20T07:30:08;66.90;;;27.20;;
71166;SDS011;58864;45.928;20.078;2023-12-20T07:32:33;64.70;;;25.67;;
71166;SDS011;58864;45.928;20.078;2023-12-20T07:34:58;65.17;;;26.97;;
71166;SDS011;58864;45.928;20.078;2023-12-20T07:37:22;73.00;;;29.47;;
71166;SDS011;58864;45.928;20.078;2023-12-20T07:39:46;69.43;;;28.57;;
71166;SDS011;58864;45.928;20.078;2023-12-20T07:42:11;80.77;;;32.70;;
71166;SDS011;58864;45.928;20.078;2023-12-20T07:44:35;79.77;;;32.40;;
71166;SDS011;58864;45.928;20.078;2023-12-20T07:47:00;79.17;;;31.00;;
71166;SDS011;58864;45.928;20.078;2023-12-20T07:49:25;77.55;;;30.75;;
71166;SDS011;58864;45.928;20.078;2023-12-20T07:51:50;68.03;;;27.50;;
71166;SDS011;58864;45.928;20.078;2023-12-20T07:54:14;73.53;;;28.93;;
71166;SDS011;58864;45.928;20.078;2023-12-20T07:56:40;76.00;;;29.98;;
71166;SDS011;58864;45.928;20.078;2023-12-20T07:59:05;76.55;;;30.83;;
71166;SDS011;58864;45.928;20.078;2023-12-20T08:01:31;65.15;;;28.17;;
71166;SDS011;58864;45.928;20.078;2023-12-20T08:03:56;72.83;;;28.57;;
71166;SDS011;58864;45.928;20.078;2023-12-20T08:06:21;75.22;;;29.70;;
71166;SDS011;58864;45.928;20.078;2023-12-20T08:08:45;87.63;;;34.07;;
71166;SDS011;58864;45.928;20.078;2023-12-20T08:11:10;78.40;;;31.30;;
71166;SDS011;58864;45.928;20.078;2023-12-20T08:13:34;62.30;;;26.13;;
71166;SDS011;58864;45.928;20.078;2023-12-20T08:15:58;61.60;;;24.63;;
71166;SDS011;58864;45.928;20.078;2023-12-20T08:18:23;55.13;;;24.93;;
71166;SDS011;58864;45.928;20.078;2023-12-20T08:20:47;48.90;;;21.80;;
71166;SDS011;58864;45.928;20.078;2023-12-20T08:23:12;51.10;;;22.67;;
71166;SDS011;58864;45.928;20.078;2023-12-20T08:25:36;52.73;;;22.83;;
71166;SDS011;58864;45.928;20.078;2023-12-20T08:28:02;62.07;;;24.40;;
71166;SDS011;58864;45.928;20.078;2023-12-20T08:30:27;54.60;;;23.65;;
71166;SDS011;58864;45.928;20.078;2023-12-20T08:32:51;50.27;;;22.70;;
71166;SDS011;58864;45.928;20.078;2023-12-20T08:35:15;67.93;;;27.65;;
71166;SDS011;58864;45.928;20.078;2023-12-20T08:37:41;66.73;;;27.87;;
71166;SDS011;58864;45.928;20.078;2023-12-20T08:40:06;60.35;;;27.55;;
71166;SDS011;58864;45.928;20.078;2023-12-20T08:42:30;55.90;;;24.43;;
71166;SDS011;58864;45.928;20.078;2023-12-20T08:44:55;54.80;;;24.80;;
71166;SDS011;58864;45.928;20.078;2023-12-20T08:47:19;54.57;;;25.67;;
71166;SDS011;58864;45.928;20.078;2023-12-20T08:49:44;47.07;;;23.23;;
71166;SDS011;58864;45.928;20.078;2023-12-20T08:52:10;50.00;;;22.33;;
71166;SDS011;58864;45.928;20.078;2023-12-20T08:54:34;59.40;;;24.70;;
71166;SDS011;58864;45.928;20.078;2023-12-20T08:56:59;50.67;;;22.60;;
71166;SDS011;58864;45.928;20.078;2023-12-20T08:59:24;49.70;;;22.40;;
71166;SDS011;58864;45.928;20.078;2023-12-20T09:01:48;63.53;;;27.48;;
71166;SDS011;58864;45.928;20.078;2023-12-20T09:04:18;65.30;;;27.15;;
71166;SDS011;58864;45.928;20.078;2023-12-20T09:06:42;58.80;;;26.27;;
71166;SDS011;58864;45.928;20.078;2023-12-20T09:09:07;56.07;;;24.23;;
71166;SDS011;58864;45.928;20.078;2023-12-20T09:11:34;55.90;;;24.52;;
71166;SDS011;58864;45.928;20.078;2023-12-20T09:13:58;50.03;;;23.57;;
71166;SDS011;58864;45.928;20.078;2023-12-20T09:16:23;57.70;;;25.20;;
71166;SDS011;58864;45.928;20.078;2023-12-20T09:18:48;65.15;;;26.38;;
71166;SDS011;58864;45.928;20.078;2023-12-20T09:21:12;59.70;;;27.27;;
71166;SDS011;58864;45.928;20.078;2023-12-20T09:23:37;70.23;;;28.90;;
71166;SDS011;58864;45.928;20.078;2023-12-20T09:26:01;88.50;;;32.60;;
71166;SDS011;58864;45.928;20.078;2023-12-20T09:28:25;93.97;;;34.07;;
71166;SDS011;58864;45.928;20.078;2023-12-20T09:30:50;68.20;;;28.88;;
71166;SDS011;58864;45.928;20.078;2023-12-20T09:33:14;60.70;;;26.13;;
71166;SDS011;58864;45.928;20.078;2023-12-20T09:35:40;59.70;;;25.35;;
71166;SDS011;58864;45.928;20.078;2023-12-20T09:38:04;55.10;;;24.33;;
71166;SDS011;58864;45.928;20.078;2023-12-20T09:40:28;56.70;;;24.67;;
71166;SDS011;58864;45.928;20.078;2023-12-20T09:43:03;55.57;;;24.47;;
71166;SDS011;58864;45.928;20.078;2023-12-20T09:45:28;55.28;;;22.45;;
71166;SDS011;58864;45.928;20.078;2023-12-20T09:47:54;48.28;;;21.77;;
71166;SDS011;58864;45.928;20.078;2023-12-20T09:50:19;52.30;;;23.50;;
71166;SDS011;58864;45.928;20.078;2023-12-20T09:52:45;53.33;;;24.25;;
71166;SDS011;58864;45.928;20.078;2023-12-20T09:55:10;64.53;;;29.27;;
71166;SDS011;58864;45.928;20.078;2023-12-20T09:57:34;58.53;;;26.87;;
71166;SDS011;58864;45.928;20.078;2023-12-20T09:59:59;53.73;;;24.23;;
71166;SDS011;58864;45.928;20.078;2023-12-20T10:02:24;58.83;;;25.92;;
71166;SDS011;58864;45.928;20.078;2023-12-20T10:04:54;54.10;;;24.40;;
71166;SDS011;58864;45.928;20.078;2023-12-20T10:07:18;74.93;;;33.03;;
71166;SDS011;58864;45.928;20.078;2023-12-20T10:09:43;80.73;;;36.60;;
71166;SDS011;58864;45.928;20.078;2023-12-20T10:12:08;74.22;;;34.60;;
71166;SDS011;58864;45.928;20.078;2023-12-20T10:14:32;61.70;;;28.57;;
71166;SDS011;58864;45.928;20.078;2023-12-20T10:17:03;57.80;;;24.63;;
71166;SDS011;58864;45.928;20.078;2023-12-20T10:19:28;54.70;;;23.65;;
71166;SDS011;58864;45.928;20.078;2023-12-20T10:21:52;61.70;;;26.83;;
71166;SDS011;58864;45.928;20.078;2023-12-20T10:24:17;56.30;;;23.83;;
71166;SDS011;58864;45.928;20.078;2023-12-20T10:26:42;55.80;;;24.27;;
71166;SDS011;58864;45.928;20.078;2023-12-20T10:29:06;57.60;;;24.53;;
71166;SDS011;58864;45.928;20.078;2023-12-20T10:31:34;66.60;;;28.27;;
71166;SDS011;58864;45.928;20.078;2023-12-20T10:34:00;66.45;;;28.42;;
71166;SDS011;58864;45.928;20.078;2023-12-20T10:36:26;65.00;;;29.20;;
71166;SDS011;58864;45.928;20.078;2023-12-20T10:38:51;66.13;;;28.13;;
71166;SDS011;58864;45.928;20.078;2023-12-20T10:41:16;56.72;;;24.60;;
71166;SDS011;58864;45.928;20.078;2023-12-20T10:43:52;45.23;;;20.40;;
71166;SDS011;58864;45.928;20.078;2023-12-20T10:46:16;52.60;;;23.17;;
71166;SDS011;58864;45.928;20.078;2023-12-20T10:48:44;52.20;;;22.53;;
71166;SDS011;58864;45.928;20.078;2023-12-20T10:51:09;46.08;;;20.55;;
71166;SDS011;58864;45.928;20.078;2023-12-20T10:53:34;54.90;;;22.20;;
71166;SDS011;58864;45.928;20.078;2023-12-20T10:56:00;54.22;;;22.95;;
71166;SDS011;58864;45.928;20.078;2023-12-20T10:58:27;61.55;;;24.52;;
71166;SDS011;58864;45.928;20.078;2023-12-20T11:00:56;62.67;;;25.40;;
71166;SDS011;58864;45.928;20.078;2023-12-20T11:03:30;63.08;;;25.35;;
71166;SDS011;58864;45.928;20.078;2023-12-20T11:06:00;66.50;;;26.23;;
71166;SDS011;58864;45.928;20.078;2023-12-20T11:08:36;60.50;;;24.10;;
71166;SDS011;58864;45.928;20.078;2023-12-20T11:11:16;60.50;;;24.67;;
71166;SDS011;58864;45.928;20.078;2023-12-20T11:13:54;67.97;;;27.57;;
71166;SDS011;58864;45.928;20.078;2023-12-20T11:16:21;81.88;;;29.67;;
71166;SDS011;58864;45.928;20.078;2023-12-20T11:18:45;68.97;;;28.37;;
71166;SDS011;58864;45.928;20.078;2023-12-20T11:21:10;75.13;;;28.60;;
71166;SDS011;58864;45.928;20.078;2023-12-20T11:23:35;73.67;;;26.90;;
71166;SDS011;58864;45.928;20.078;2023-12-20T11:26:00;77.97;;;27.85;;
71166;SDS011;58864;45.928;20.078;2023-12-20T11:28:26;55.90;;;24.17;;
71166;SDS011;58864;45.928;20.078;2023-12-20T11:30:52;63.53;;;25.30;;
71166;SDS011;58864;45.928;20.078;2023-12-20T11:33:25;68.35;;;26.45;;
71166;SDS011;58864;45.928;20.078;2023-12-20T11:35:51;73.78;;;24.92;;
71166;SDS011;58864;45.928;20.078;2023-12-20T11:38:16;63.35;;;24.98;;
71166;SDS011;58864;45.928;20.078;2023-12-20T11:40:43;61.30;;;23.77;;
71166;SDS011;58864;45.928;20.078;2023-12-20T11:43:08;63.75;;;25.23;;
71166;SDS011;58864;45.928;20.078;2023-12-20T11:45:33;62.97;;;24.53;;
71166;SDS011;58864;45.928;20.078;2023-12-20T11:47:58;78.10;;;26.27;;
71166;SDS011;58864;45.928;20.078;2023-12-20T11:50:23;65.93;;;25.10;;
71166;SDS011;58864;45.928;20.078;2023-12-20T11:52:48;66.43;;;24.27;;
71166;SDS011;58864;45.928;20.078;2023-12-20T11:55:13;64.18;;;23.92;;
71166;SDS011;58864;45.928;20.078;2023-12-20T11:57:38;59.43;;;23.67;;
71166;SDS011;58864;45.928;20.078;2023-12-20T12:00:03;54.95;;;22.67;;
71166;SDS011;58864;45.928;20.078;2023-12-20T12:02:28;58.03;;;22.80;;
71166;SDS011;58864;45.928;20.078;2023-12-20T12:04:52;69.35;;;23.48;;
71166;SDS011;58864;45.928;20.078;2023-12-20T12:07:17;67.57;;;23.27;;
71166;SDS011;58864;45.928;20.078;2023-12-20T12:09:41;67.60;;;25.07;;
71166;SDS011;58864;45.928;20.078;2023-12-20T12:12:06;64.60;;;24.42;;
71166;SDS011;58864;45.928;20.078;2023-12-20T12:14:31;62.42;;;24.67;;
71166;SDS011;58864;45.928;20.078;2023-12-20T12:16:56;73.23;;;28.40;;
71166;SDS011;58864;45.928;20.078;2023-12-20T12:19:21;66.83;;;25.40;;
71166;SDS011;58864;45.928;20.078;2023-12-20T12:21:46;77.88;;;27.02;;
71166;SDS011;58864;45.928;20.078;2023-12-20T12:24:10;59.73;;;24.37;;
71166;SDS011;58864;45.928;20.078;2023-12-20T12:26:35;72.35;;;25.98;;
71166;SDS011;58864;45.928;20.078;2023-12-20T12:28:59;67.80;;;24.00;;
71166;SDS011;58864;45.928;20.078;2023-12-20T12:31:24;62.00;;;24.00;;
71166;SDS011;58864;45.928;20.078;2023-12-20T12:33:50;69.50;;;24.73;;
71166;SDS011;58864;45.928;20.078;2023-12-20T12:36:15;79.27;;;28.37;;
71166;SDS011;58864;45.928;20.078;2023-12-20T12:38:41;74.72;;;28.17;;
71166;SDS011;58864;45.928;20.078;2023-12-20T12:41:06;74.33;;;26.83;;
71166;SDS011;58864;45.928;20.078;2023-12-20T12:43:33;73.32;;;26.77;;
71166;SDS011;58864;45.928;20.078;2023-12-20T12:45:58;73.35;;;27.95;;
71166;SDS011;58864;45.928;20.078;2023-12-20T12:48:22;63.27;;;24.00;;
71166;SDS011;58864;45.928;20.078;2023-12-20T12:50:46;67.93;;;25.07;;
71166;SDS011;58864;45.928;20.078;2023-12-20T12:53:11;63.75;;;24.60;;
71166;SDS011;58864;45.928;20.078;2023-12-20T12:55:35;67.57;;;25.50;;
71166;SDS011;58864;45.928;20.078;2023-12-20T12:58:00;73.72;;;26.65;;
71166;SDS011;58864;45.928;20.078;2023-12-20T13:00:25;69.87;;;27.93;;
71166;SDS011;58864;45.928;20.078;2023-12-20T13:02:50;65.30;;;25.42;;
71166;SDS011;58864;45.928;20.078;2023-12-20T13:05:14;58.30;;;24.97;;
71166;SDS011;58864;45.928;20.078;2023-12-20T13:07:39;69.90;;;27.60;;
71166;SDS011;58864;45.928;20.078;2023-12-20T13:10:03;72.20;;;26.83;;
71166;SDS011;58864;45.928;20.078;2023-12-20T13:12:28;88.57;;;29.57;;
71166;SDS011;58864;45.928;20.078;2023-12-20T13:14:53;87.53;;;29.38;;
71166;SDS011;58864;45.928;20.078;2023-12-20T13:17:18;77.60;;;27.30;;
71166;SDS011;58864;45.928;20.078;2023-12-20T13:19:42;70.30;;;26.98;;
71166;SDS011;58864;45.928;20.078;2023-12-20T13:22:07;81.43;;;29.03;;
71166;SDS011;58864;45.928;20.078;2023-12-20T13:24:31;78.37;;;26.00;;
71166;SDS011;58864;45.928;20.078;2023-12-20T13:26:56;68.90;;;24.92;;
71166;SDS011;58864;45.928;20.078;2023-12-20T13:29:21;82.87;;;24.20;;
71166;SDS011;58864;45.928;20.078;2023-12-20T13:31:45;68.65;;;23.88;;
71166;SDS011;58864;45.928;20.078;2023-12-20T13:34:10;65.63;;;24.03;;
71166;SDS011;58864;45.928;20.078;2023-12-20T13:36:34;58.33;;;21.93;;
71166;SDS011;58864;45.928;20.078;2023-12-20T13:39:00;104.00;;;32.42;;
71166;SDS011;58864;45.928;20.078;2023-12-20T13:41:25;76.43;;;23.67;;
71166;SDS011;58864;45.928;20.078;2023-12-20T13:43:50;72.53;;;24.47;;
71166;SDS011;58864;45.928;20.078;2023-12-20T13:46:15;73.65;;;24.75;;
71166;SDS011;58864;45.928;20.078;2023-12-20T13:48:39;78.87;;;23.37;;
71166;SDS011;58864;45.928;20.078;2023-12-20T13:51:04;77.13;;;25.60;;
71166;SDS011;58864;45.928;20.078;2023-12-20T13:53:29;69.30;;;26.83;;
71166;SDS011;58864;45.928;20.078;2023-12-20T13:55:54;76.37;;;31.73;;